sensor_id;sensor_type;location;lat;lon;timestamp;pressure;altitude;pressure_sealevel;temperature;humidity
61357;BME280;47227;46.752;23.576;2023-05-08T03:32:50;96499.13;;;10.87;89.83
61357;BME280;47227;46.752;23.576;2023-05-08T04:59:09;96536.19;;;11.12;89.13
61357;BME280;47227;46.752;23.576;2023-05-08T07:02:40;96572.11;;;12.17;82.57
61357;BME280;47227;46.752;23.576;2023-05-08T07:06:16;96577.39;;;12.07;83.49
61357;BME280;47227;46.752;23.576;2023-05-08T07:09:03;96575.20;;;11.88;83.55
61357;BME280;47227;46.752;23.576;2023-05-08T07:14:44;96572.90;;;12.04;83.16
61357;BME280;47227;46.752;23.576;2023-05-08T07:18:14;96569.07;;;12.12;82.76
61357;BME280;47227;46.752;23.576;2023-05-08T07:21:47;96571.23;;;12.13;83.38
61357;BME280;47227;46.752;23.576;2023-05-08T07:37:22;96583.02;;;12.97;78.34
61357;BME280;47227;46.752;23.576;2023-05-08T07:42:54;96581.76;;;13.06;78.96
61357;BME280;47227;46.752;23.576;2023-05-08T07:49:05;96584.48;;;13.11;78.18
61357;BME280;47227;46.752;23.576;2023-05-08T07:58:46;96585.37;;;12.85;79.91
61357;BME280;47227;46.752;23.576;2023-05-08T08:01:23;96583.89;;;12.56;80.11
61357;BME280;47227;46.752;23.576;2023-05-08T08:04:32;96584.80;;;12.24;81.34
61357;BME280;47227;46.752;23.576;2023-05-08T08:07:25;96584.50;;;12.27;81.28
61357;BME280;47227;46.752;23.576;2023-05-08T08:09:56;96582.64;;;12.23;81.93
61357;BME280;47227;46.752;23.576;2023-05-08T08:12:39;96582.45;;;12.15;82.02
61357;BME280;47227;46.752;23.576;2023-05-08T08:15:09;96580.55;;;12.20;81.88
61357;BME280;47227;46.752;23.576;2023-05-08T08:18:13;96580.16;;;12.17;81.63
61357;BME280;47227;46.752;23.576;2023-05-08T08:20:46;96580.69;;;12.11;81.55
61357;BME280;47227;46.752;23.576;2023-05-08T08:23:52;96588.58;;;12.05;80.97
61357;BME280;47227;46.752;23.576;2023-05-08T08:26:28;96593.77;;;12.09;81.18
61357;BME280;47227;46.752;23.576;2023-05-08T08:33:03;96589.15;;;11.85;81.99
61357;BME280;47227;46.752;23.576;2023-05-08T08:36:00;96589.97;;;11.88;83.17
61357;BME280;47227;46.752;23.576;2023-05-08T08:42:33;96591.83;;;11.91;83.86
61357;BME280;47227;46.752;23.576;2023-05-08T08:45:02;96596.79;;;12.01;83.33
61357;BME280;47227;46.752;23.576;2023-05-08T08:47:34;96593.34;;;11.92;83.18
61357;BME280;47227;46.752;23.576;2023-05-08T09:01:17;96599.75;;;11.44;87.82
61357;BME280;47227;46.752;23.576;2023-05-08T09:03:53;96601.81;;;11.50;87.12
61357;BME280;47227;46.752;23.576;2023-05-08T09:06:46;96605.34;;;11.55;86.42
61357;BME280;47227;46.752;23.576;2023-05-08T09:09:19;96606.46;;;11.69;85.14
61357;BME280;47227;46.752;23.576;2023-05-08T09:11:50;96607.28;;;11.58;85.56
61357;BME280;47227;46.752;23.576;2023-05-08T09:14:19;96606.97;;;11.37;86.10
61357;BME280;47227;46.752;23.576;2023-05-08T09:16:48;96606.70;;;11.45;86.05
61357;BME280;47227;46.752;23.576;2023-05-08T09:19:19;96618.03;;;11.57;85.44
61357;BME280;47227;46.752;23.576;2023-05-08T09:21:58;96615.46;;;11.66;85.24
61357;BME280;47227;46.752;23.576;2023-05-08T09:24:56;96617.43;;;11.77;85.28
61357;BME280;47227;46.752;23.576;2023-05-08T09:27:29;96620.34;;;11.79;85.39
61357;BME280;47227;46.752;23.576;2023-05-08T09:30:04;96615.57;;;11.84;85.17
61357;BME280;47227;46.752;23.576;2023-05-08T09:32:36;96614.45;;;11.90;84.70
61357;BME280;47227;46.752;23.576;2023-05-08T09:35:08;96620.02;;;11.95;84.28
61357;BME280;47227;46.752;23.576;2023-05-08T09:37:41;96615.44;;;11.90;83.71
61357;BME280;47227;46.752;23.576;2023-05-08T09:40:14;96611.84;;;11.88;83.36
61357;BME280;47227;46.752;23.576;2023-05-08T09:42:44;96610.15;;;11.88;82.87
61357;BME280;47227;46.752;23.576;2023-05-08T09:48:53;96610.86;;;11.73;82.36
61357;BME280;47227;46.752;23.576;2023-05-08T09:51:24;96605.89;;;11.87;82.44
61357;BME280;47227;46.752;23.576;2023-05-08T09:57:10;96611.16;;;12.07;81.90
61357;BME280;47227;46.752;23.576;2023-05-08T09:59:39;96606.27;;;12.14;81.51
61357;BME280;47227;46.752;23.576;2023-05-08T10:05:28;96605.33;;;11.93;80.84
61357;BME280;47227;46.752;23.576;2023-05-08T10:08:21;96607.21;;;12.03;80.72
61357;BME280;47227;46.752;23.576;2023-05-08T10:10:54;96607.09;;;11.97;81.07
61357;BME280;47227;46.752;23.576;2023-05-08T10:13:47;96605.71;;;11.82;81.78
61357;BME280;47227;46.752;23.576;2023-05-08T10:16:41;96608.08;;;11.94;81.32
61357;BME280;47227;46.752;23.576;2023-05-08T10:19:40;96605.14;;;11.86;81.05
61357;BME280;47227;46.752;23.576;2023-05-08T10:22:24;96601.48;;;11.85;80.88
61357;BME280;47227;46.752;23.576;2023-05-08T10:24:56;96602.04;;;12.05;80.81
61357;BME280;47227;46.752;23.576;2023-05-08T10:27:41;96604.66;;;12.18;80.11
61357;BME280;47227;46.752;23.576;2023-05-08T10:30:48;96602.23;;;12.15;79.93
61357;BME280;47227;46.752;23.576;2023-05-08T10:36:22;96599.99;;;12.76;79.38
61357;BME280;47227;46.752;23.576;2023-05-08T10:38:52;96602.36;;;12.84;77.66
61357;BME280;47227;46.752;23.576;2023-05-08T10:41:26;96606.77;;;13.04;77.31
61357;BME280;47227;46.752;23.576;2023-05-08T10:43:58;96604.59;;;13.19;77.46
61357;BME280;47227;46.752;23.576;2023-05-08T10:49:33;96610.66;;;13.49;76.20
61357;BME280;47227;46.752;23.576;2023-05-08T10:52:26;96610.06;;;13.56;76.00
61357;BME280;47227;46.752;23.576;2023-05-08T10:55:20;96610.92;;;13.63;75.90
61357;BME280;47227;46.752;23.576;2023-05-08T11:01:17;96618.58;;;13.25;74.68
61357;BME280;47227;46.752;23.576;2023-05-08T11:05:23;96624.21;;;13.15;75.68
61357;BME280;47227;46.752;23.576;2023-05-08T11:23:39;96621.01;;;13.24;74.58
61357;BME280;47227;46.752;23.576;2023-05-08T11:29:19;96624.47;;;12.98;74.93
61357;BME280;47227;46.752;23.576;2023-05-08T11:42:47;96632.40;;;12.35;77.88
61357;BME280;47227;46.752;23.576;2023-05-08T11:45:18;96641.35;;;12.15;78.66
61357;BME280;47227;46.752;23.576;2023-05-08T11:51:09;96643.73;;;11.53;80.36
61357;BME280;47227;46.752;23.576;2023-05-08T11:53:51;96651.42;;;11.31;81.35
61357;BME280;47227;46.752;23.576;2023-05-08T11:56:38;96653.27;;;11.35;81.15
61357;BME280;47227;46.752;23.576;2023-05-08T11:59:12;96654.47;;;11.19;82.06
61357;BME280;47227;46.752;23.576;2023-05-08T12:01:56;96655.24;;;11.11;82.08
61357;BME280;47227;46.752;23.576;2023-05-08T12:04:56;96655.88;;;11.04;82.66
61357;BME280;47227;46.752;23.576;2023-05-08T12:07:30;96657.18;;;10.86;83.96
61357;BME280;47227;46.752;23.576;2023-05-08T12:10:01;96658.29;;;10.96;83.10
61357;BME280;47227;46.752;23.576;2023-05-08T12:12:42;96658.72;;;11.08;82.58
61357;BME280;47227;46.752;23.576;2023-05-08T12:15:34;96657.62;;;11.22;82.24
61357;BME280;47227;46.752;23.576;2023-05-08T12:18:05;96656.91;;;11.36;81.89
61357;BME280;47227;46.752;23.576;2023-05-08T12:21:03;96653.03;;;11.57;81.01
61357;BME280;47227;46.752;23.576;2023-05-08T12:26:23;96658.70;;;12.03;80.42
61357;BME280;47227;46.752;23.576;2023-05-08T12:28:55;96658.50;;;12.25;79.98
61357;BME280;47227;46.752;23.576;2023-05-08T12:31:25;96654.80;;;12.39;79.36
61357;BME280;47227;46.752;23.576;2023-05-08T12:37:10;96657.23;;;12.76;77.84
61357;BME280;47227;46.752;23.576;2023-05-08T12:39:43;96662.76;;;12.59;76.42
61357;BME280;47227;46.752;23.576;2023-05-08T12:42:12;96658.11;;;12.63;76.18
61357;BME280;47227;46.752;23.576;2023-05-08T12:47:39;96657.67;;;12.82;76.20
61357;BME280;47227;46.752;23.576;2023-05-08T12:54:09;96657.41;;;13.03;75.61
61357;BME280;47227;46.752;23.576;2023-05-08T13:34:34;96681.08;;;13.25;72.72
61357;BME280;47227;46.752;23.576;2023-05-08T13:37:31;96686.10;;;13.15;72.93
61357;BME280;47227;46.752;23.576;2023-05-08T13:40:01;96683.46;;;13.21;72.74
61357;BME280;47227;46.752;23.576;2023-05-08T13:42:43;96688.04;;;13.21;72.39
61357;BME280;47227;46.752;23.576;2023-05-08T13:45:32;96690.50;;;13.31;72.83
61357;BME280;47227;46.752;23.576;2023-05-08T13:48:04;96690.84;;;13.33;72.65
61357;BME280;47227;46.752;23.576;2023-05-08T13:50:53;96686.02;;;13.20;68.86
61357;BME280;47227;46.752;23.576;2023-05-08T13:53:57;96686.16;;;13.17;67.47
61357;BME280;47227;46.752;23.576;2023-05-08T13:57:01;96687.36;;;13.14;63.07
61357;BME280;47227;46.752;23.576;2023-05-08T14:03:35;96690.88;;;13.13;60.90
61357;BME280;47227;46.752;23.576;2023-05-08T14:06:10;96693.48;;;13.09;61.43
61357;BME280;47227;46.752;23.576;2023-05-08T14:12:05;96698.74;;;13.08;62.65
61357;BME280;47227;46.752;23.576;2023-05-08T14:18:06;96704.38;;;13.14;66.69
61357;BME280;47227;46.752;23.576;2023-05-08T14:20:38;96701.99;;;13.13;67.81
61357;BME280;47227;46.752;23.576;2023-05-08T14:23:50;96711.61;;;12.95;64.98
61357;BME280;47227;46.752;23.576;2023-05-08T14:26:33;96710.86;;;12.81;64.04
61357;BME280;47227;46.752;23.576;2023-05-08T15:21:59;96763.61;;;13.11;55.59
61357;BME280;47227;46.752;23.576;2023-05-08T16:08:04;96794.96;;;13.41;51.65
61357;BME280;47227;46.752;23.576;2023-05-08T17:20:46;96856.85;;;12.41;50.02
61357;BME280;47227;46.752;23.576;2023-05-08T17:23:40;96858.77;;;12.11;50.74
61357;BME280;47227;46.752;23.576;2023-05-08T17:29:31;96868.02;;;11.56;52.08
61357;BME280;47227;46.752;23.576;2023-05-08T17:32:08;96874.44;;;11.43;52.47
61357;BME280;47227;46.752;23.576;2023-05-08T17:35:39;96883.01;;;11.28;52.99
61357;BME280;47227;46.752;23.576;2023-05-08T17:38:28;96886.60;;;11.23;53.25
61357;BME280;47227;46.752;23.576;2023-05-08T17:41:18;96893.28;;;11.18;53.36
61357;BME280;47227;46.752;23.576;2023-05-08T18:34:44;96975.16;;;9.14;59.00
61357;BME280;47227;46.752;23.576;2023-05-08T18:37:53;96982.31;;;9.05;59.32
61357;BME280;47227;46.752;23.576;2023-05-08T18:40:47;96983.78;;;8.96;59.60
61357;BME280;47227;46.752;23.576;2023-05-08T18:43:44;96986.15;;;8.87;60.87
61357;BME280;47227;46.752;23.576;2023-05-08T18:46:49;96986.66;;;8.76;60.70
61357;BME280;47227;46.752;23.576;2023-05-08T18:52:46;96991.91;;;8.59;61.12
61357;BME280;47227;46.752;23.576;2023-05-08T18:55:51;96993.19;;;8.52;61.63
61357;BME280;47227;46.752;23.576;2023-05-08T18:58:43;96994.85;;;8.46;61.71
61357;BME280;47227;46.752;23.576;2023-05-08T19:01:58;96994.89;;;8.40;62.43
61357;BME280;47227;46.752;23.576;2023-05-08T19:05:09;96998.92;;;8.36;62.40
61357;BME280;47227;46.752;23.576;2023-05-08T19:08:19;96994.11;;;8.32;62.45
61357;BME280;47227;46.752;23.576;2023-05-08T19:11:15;96995.27;;;8.26;62.98
61357;BME280;47227;46.752;23.576;2023-05-08T19:14:38;97002.92;;;8.19;62.96
61357;BME280;47227;46.752;23.576;2023-05-08T19:18:07;97003.34;;;8.13;63.70
61357;BME280;47227;46.752;23.576;2023-05-08T19:21:50;96998.89;;;8.02;64.15
61357;BME280;47227;46.752;23.576;2023-05-08T19:25:02;97003.86;;;7.97;63.92
61357;BME280;47227;46.752;23.576;2023-05-08T19:28:03;97004.77;;;7.96;64.48
61357;BME280;47227;46.752;23.576;2023-05-08T19:30:54;97007.10;;;7.94;64.62
61357;BME280;47227;46.752;23.576;2023-05-08T19:34:19;97012.46;;;7.92;64.35
61357;BME280;47227;46.752;23.576;2023-05-08T19:37:29;97016.78;;;7.89;64.29
61357;BME280;47227;46.752;23.576;2023-05-08T19:40:21;97018.91;;;7.85;64.81
61357;BME280;47227;46.752;23.576;2023-05-08T19:43:29;97025.45;;;7.80;64.93
61357;BME280;47227;46.752;23.576;2023-05-08T19:46:36;97019.80;;;7.76;64.84
61357;BME280;47227;46.752;23.576;2023-05-08T19:49:46;97023.95;;;7.74;65.03
61357;BME280;47227;46.752;23.576;2023-05-08T23:29:23;97045.60;;;6.78;66.79
61357;BME280;47227;46.752;23.576;2023-05-08T23:31:51;97045.17;;;6.76;66.87
61357;BME280;47227;46.752;23.576;2023-05-08T23:34:19;97046.14;;;6.74;66.99
61357;BME280;47227;46.752;23.576;2023-05-08T23:36:47;97044.61;;;6.71;66.73
61357;BME280;47227;46.752;23.576;2023-05-08T23:39:16;97043.08;;;6.68;67.12
